createdAt,value
2018-04-27T00:02:09.489Z,2.67
2018-04-27T00:04:35.389Z,2.50
2018-04-27T00:07:01.278Z,2.70
2018-04-27T00:09:27.149Z,2.77
2018-04-27T00:11:53.030Z,3.00
2018-04-27T00:14:18.893Z,2.90
2018-04-27T00:16:44.808Z,2.40
2018-04-27T00:19:10.703Z,2.33
2018-04-27T00:21:36.577Z,2.73
2018-04-27T00:24:02.510Z,2.20
2018-04-27T00:26:28.365Z,2.80
2018-04-27T00:28:54.262Z,2.87
2018-04-27T00:31:20.117Z,2.70
2018-04-27T00:33:45.995Z,2.80
2018-04-27T00:36:11.895Z,2.80
2018-04-27T00:38:37.779Z,2.77
2018-04-27T00:41:03.636Z,2.70
2018-04-27T00:43:29.536Z,2.50
2018-04-27T00:45:55.409Z,2.50
2018-04-27T00:48:21.293Z,2.77
2018-04-27T00:50:47.158Z,2.67
2018-04-27T00:53:13.074Z,2.50
2018-04-27T00:55:38.973Z,3.30
2018-04-27T00:58:04.896Z,2.40
2018-04-27T01:00:30.755Z,3.20
2018-04-27T01:02:56.620Z,2.70
2018-04-27T01:05:22.501Z,2.77
2018-04-27T01:07:48.386Z,2.73
2018-04-27T01:10:14.296Z,2.60
2018-04-27T01:12:40.155Z,2.43
2018-04-27T01:15:06.079Z,2.63
2018-04-27T01:17:31.956Z,2.37
2018-04-27T01:19:57.820Z,2.47
2018-04-27T01:22:23.686Z,2.67
2018-04-27T01:24:49.598Z,2.70
2018-04-27T01:27:15.466Z,2.40
2018-04-27T01:29:41.329Z,2.90
2018-04-27T01:32:07.232Z,2.50
2018-04-27T01:34:33.124Z,2.63
2018-04-27T01:36:59.036Z,2.80
2018-04-27T01:39:24.914Z,2.90
2018-04-27T01:41:50.816Z,2.90
2018-04-27T01:44:16.706Z,2.90
2018-04-27T01:46:42.608Z,2.83
2018-04-27T01:49:08.498Z,2.80
2018-04-27T01:51:34.406Z,2.70
2018-04-27T01:54:00.292Z,3.00
2018-04-27T01:56:26.204Z,3.13
2018-04-27T01:58:52.256Z,2.67
2018-04-27T02:01:18.121Z,2.97
2018-04-27T02:03:44.037Z,2.80
2018-04-27T02:06:09.925Z,2.60
2018-04-27T02:08:35.816Z,2.80
2018-04-27T02:11:01.722Z,2.63
2018-04-27T02:13:27.588Z,2.70
2018-04-27T02:15:53.658Z,3.00
2018-04-27T02:18:19.493Z,2.83
2018-04-27T02:20:45.332Z,2.70
2018-04-27T02:23:11.216Z,2.90
2018-04-27T02:25:37.058Z,2.80
2018-04-27T02:28:02.905Z,2.90
2018-04-27T02:30:28.833Z,2.73
2018-04-27T02:32:54.714Z,2.67
2018-04-27T02:35:20.543Z,2.80
2018-04-27T02:37:46.363Z,2.77
2018-04-27T02:40:12.505Z,3.13
2018-04-27T02:42:38.411Z,2.70
2018-04-27T02:45:04.298Z,3.00
2018-04-27T03:14:56.801Z,2.57
2018-04-27T03:31:04.728Z,3.03
2018-04-27T04:25:37.821Z,3.50
2018-04-27T04:30:55.848Z,3.50
2018-04-27T04:33:21.667Z,3.95
2018-04-27T04:35:47.573Z,3.87
2018-04-27T04:38:13.418Z,3.60
2018-04-27T04:40:39.277Z,3.80
2018-04-27T04:43:05.118Z,3.57
2018-04-27T04:45:31.006Z,3.30
2018-04-27T04:47:57.115Z,3.87
2018-04-27T04:50:23.199Z,3.30
2018-04-27T04:52:49.036Z,3.60
2018-04-27T04:55:14.855Z,3.70
2018-04-27T04:57:40.769Z,3.70
2018-04-27T05:00:06.590Z,4.00
2018-04-27T05:02:32.468Z,4.00
2018-04-27T05:04:58.283Z,3.40
2018-04-27T05:07:24.111Z,3.80
2018-04-27T05:09:49.952Z,3.93
2018-04-27T05:12:15.781Z,3.93
2018-04-27T05:14:41.696Z,4.07
2018-04-27T05:17:07.569Z,4.00
2018-04-27T05:19:33.462Z,4.17
2018-04-27T05:21:59.352Z,4.17
2018-04-27T05:24:25.187Z,4.37
2018-04-27T05:26:51.022Z,4.03
2018-04-27T05:29:16.879Z,3.77
2018-04-27T05:31:42.801Z,4.17
2018-04-27T05:34:08.658Z,3.67
2018-04-27T05:36:34.517Z,3.80
2018-04-27T05:39:00.359Z,3.33
2018-04-27T05:41:26.194Z,3.90
2018-04-27T05:43:52.936Z,3.90
2018-04-27T05:46:18.837Z,3.93
2018-04-27T05:48:44.744Z,3.70
2018-04-27T05:51:10.625Z,3.77
2018-04-27T05:53:36.512Z,3.97
2018-04-27T05:56:02.364Z,3.60
2018-04-27T05:58:28.270Z,3.37
2018-04-27T06:00:54.137Z,3.87
2018-04-27T06:03:20.356Z,3.30
2018-04-27T06:05:46.205Z,3.47
2018-04-27T06:08:12.061Z,3.40
2018-04-27T06:10:37.935Z,3.80
2018-04-27T06:13:03.842Z,3.73
2018-04-27T06:15:29.707Z,3.50
2018-04-27T06:17:55.532Z,3.50
2018-04-27T06:20:21.399Z,4.30
2018-04-27T06:22:47.289Z,3.30
2018-04-27T06:25:13.197Z,3.50
2018-04-27T06:27:39.082Z,3.83
2018-04-27T06:30:05.009Z,3.50
2018-04-27T06:32:30.884Z,3.63
2018-04-27T06:34:56.705Z,3.47
2018-04-27T06:37:22.568Z,3.70
2018-04-27T06:39:48.433Z,3.67
2018-04-27T06:42:14.331Z,3.53
2018-04-27T06:44:40.199Z,4.00
2018-04-27T06:47:06.101Z,3.73
2018-04-27T06:49:31.970Z,3.87
2018-04-27T06:51:57.862Z,3.30
2018-04-27T06:54:23.713Z,3.30
2018-04-27T06:56:49.601Z,3.57
2018-04-27T06:59:15.536Z,2.87
2018-04-27T07:01:41.381Z,3.07
2018-04-27T07:04:07.246Z,3.33
2018-04-27T07:06:33.154Z,3.27
2018-04-27T07:08:59.011Z,2.80
2018-04-27T07:13:57.585Z,2.40
2018-04-27T07:16:23.425Z,2.77
2018-04-27T07:18:49.261Z,2.90
2018-04-27T07:21:15.124Z,2.80
2018-04-27T07:23:41.013Z,3.03
2018-04-27T07:26:06.895Z,2.50
2018-04-27T07:28:32.752Z,2.30
2018-04-27T07:30:58.628Z,2.10
2018-04-27T07:33:24.493Z,2.47
2018-04-27T07:35:50.339Z,2.10
2018-04-27T07:38:16.488Z,1.77
2018-04-27T07:40:42.390Z,2.17
2018-04-27T07:43:08.993Z,1.80
2018-04-27T07:45:34.909Z,1.67
2018-04-27T07:48:00.838Z,1.70
2018-04-27T07:50:26.703Z,1.93
2018-04-27T07:52:52.625Z,1.97
2018-04-27T07:55:18.518Z,2.17
2018-04-27T07:57:44.376Z,2.10
2018-04-27T08:00:10.281Z,2.57
2018-04-27T08:02:36.157Z,2.37
2018-04-27T08:05:02.053Z,2.30
2018-04-27T08:07:27.979Z,2.17
2018-04-27T08:09:53.932Z,2.60
2018-04-27T08:12:19.778Z,2.10
2018-04-27T08:14:45.632Z,2.40
2018-04-27T08:17:11.525Z,2.60
2018-04-27T08:19:37.371Z,2.30
2018-04-27T08:22:03.276Z,2.40
2018-04-27T08:24:29.187Z,2.83
2018-04-27T08:26:55.055Z,3.27
2018-04-27T08:29:20.957Z,2.30
2018-04-27T08:31:46.789Z,2.40
2018-04-27T08:34:12.698Z,1.97
2018-04-27T08:36:38.549Z,2.13
2018-04-27T08:39:04.413Z,2.50
2018-04-27T08:41:30.282Z,2.20
2018-04-27T08:43:56.169Z,2.10
2018-04-27T08:46:22.064Z,2.00
2018-04-27T08:48:47.965Z,1.87
2018-04-27T08:51:13.862Z,1.95
2018-04-27T08:53:39.757Z,1.98
2018-04-27T08:56:05.630Z,1.77
2018-04-27T08:58:31.551Z,2.10
2018-04-27T09:00:57.411Z,1.90
2018-04-27T09:03:23.242Z,2.03
2018-04-27T09:05:49.132Z,1.90
2018-04-27T09:08:14.967Z,1.95
2018-04-27T09:10:40.845Z,2.15
2018-04-27T09:13:06.688Z,2.40
2018-04-27T09:15:32.587Z,2.40
2018-04-27T09:17:58.444Z,2.33
2018-04-27T09:20:24.335Z,2.60
2018-04-27T09:22:50.179Z,2.42
2018-04-27T09:25:16.052Z,2.40
2018-04-27T09:27:41.886Z,2.53
2018-04-27T09:30:07.754Z,2.50
2018-04-27T09:32:33.599Z,2.40
2018-04-27T09:34:59.408Z,2.30
2018-04-27T09:37:25.265Z,2.22
2018-04-27T09:39:51.122Z,2.30
2018-04-27T09:42:16.982Z,2.45
2018-04-27T09:44:42.900Z,2.28
2018-04-27T09:47:08.759Z,2.47
2018-04-27T09:49:34.663Z,2.70
2018-04-27T09:52:00.491Z,2.70
2018-04-27T09:54:26.340Z,2.50
2018-04-27T09:56:52.197Z,2.28
2018-04-27T09:59:18.146Z,2.35
2018-04-27T10:01:44.190Z,2.47
2018-04-27T10:04:10.075Z,2.47
2018-04-27T10:06:35.926Z,2.55
2018-04-27T10:09:01.794Z,2.55
2018-04-27T10:11:27.665Z,2.55
2018-04-27T10:13:53.534Z,2.78
2018-04-27T10:16:19.403Z,2.40
2018-04-27T10:18:45.264Z,2.67
2018-04-27T10:21:11.131Z,2.40
2018-04-27T10:23:36.978Z,2.72
2018-04-27T10:26:02.832Z,2.60
2018-04-27T10:28:28.756Z,2.42
2018-04-27T10:30:54.646Z,2.25
2018-04-27T10:33:20.551Z,2.60
2018-04-27T10:35:46.510Z,2.50
2018-04-27T10:38:12.450Z,3.10
2018-04-27T10:40:38.299Z,2.78
2018-04-27T10:43:04.175Z,2.45
2018-04-27T10:45:30.081Z,2.55
2018-04-27T10:47:55.953Z,2.58
2018-04-27T10:50:21.954Z,2.37
2018-04-27T10:52:47.804Z,2.65
2018-04-27T10:55:13.691Z,2.70
2018-04-27T10:57:39.764Z,2.40
2018-04-27T11:00:05.602Z,2.50
2018-04-27T11:02:31.538Z,2.97
2018-04-27T11:04:57.404Z,2.97
2018-04-27T11:07:23.328Z,2.80
2018-04-27T11:09:49.176Z,2.92
2018-04-27T11:12:15.023Z,2.70
2018-04-27T11:14:40.918Z,2.90
2018-04-27T11:17:06.869Z,2.97
2018-04-27T11:19:32.831Z,2.78
2018-04-27T11:21:58.847Z,2.72
2018-04-27T11:24:24.739Z,3.42
2018-04-27T11:26:50.621Z,2.90
2018-04-27T11:29:16.474Z,2.83
2018-04-27T11:31:42.346Z,2.85
2018-04-27T11:34:08.240Z,2.83
2018-04-27T11:36:34.079Z,3.47
2018-04-27T11:38:59.965Z,3.33
2018-04-27T11:41:25.810Z,2.97
2018-04-27T11:43:51.675Z,2.90
2018-04-27T11:46:17.600Z,3.00
2018-04-27T11:48:43.529Z,2.87
2018-04-27T11:51:09.365Z,2.80
2018-04-27T11:53:35.228Z,2.83
2018-04-27T11:56:01.144Z,3.00
2018-04-27T11:58:27.003Z,3.20
2018-04-27T12:00:53.072Z,3.08
2018-04-27T12:03:18.950Z,3.10
2018-04-27T12:05:44.809Z,3.00
2018-04-27T12:08:10.673Z,2.90
2018-04-27T12:10:36.527Z,3.05
2018-04-27T12:13:02.380Z,3.10
2018-04-27T12:15:28.264Z,3.12
2018-04-27T12:17:54.123Z,2.92
2018-04-27T12:20:19.969Z,3.58
2018-04-27T12:22:45.825Z,3.40
2018-04-27T12:25:11.753Z,3.10
2018-04-27T12:27:37.573Z,2.90
2018-04-27T12:30:03.465Z,3.00
2018-04-27T12:32:29.336Z,3.45
2018-04-27T12:34:55.179Z,3.03
2018-04-27T12:37:21.088Z,2.83
2018-04-27T12:39:46.928Z,2.45
2018-04-27T12:42:12.815Z,2.70
2018-04-27T12:44:38.711Z,3.10
2018-04-27T12:47:04.620Z,2.60
2018-04-27T12:49:30.496Z,2.28
2018-04-27T12:51:56.392Z,2.67
2018-04-27T12:54:22.569Z,3.33
2018-04-27T12:56:48.797Z,2.50
2018-04-27T12:59:14.683Z,3.12
2018-04-27T13:01:40.525Z,2.72
2018-04-27T13:04:06.431Z,3.00
2018-04-27T13:06:32.283Z,2.60
2018-04-27T13:08:58.180Z,2.30
2018-04-27T13:11:24.050Z,2.62
2018-04-27T13:13:49.889Z,2.30
2018-04-27T13:16:15.771Z,2.53
2018-04-27T13:18:41.622Z,2.25
2018-04-27T13:21:07.478Z,2.50
2018-04-27T13:23:33.320Z,1.90
2018-04-27T13:25:59.173Z,2.40
2018-04-27T13:28:25.043Z,2.60
2018-04-27T13:30:50.901Z,2.62
2018-04-27T13:33:16.754Z,2.35
2018-04-27T13:35:42.694Z,2.30
2018-04-27T13:38:08.585Z,2.15
2018-04-27T13:40:34.474Z,2.72
2018-04-27T13:43:00.371Z,2.30
2018-04-27T13:45:26.215Z,2.33
2018-04-27T13:47:52.075Z,2.17
2018-04-27T13:50:18.000Z,2.53
2018-04-27T13:52:43.915Z,2.45
2018-04-27T13:55:10.459Z,2.58
2018-04-27T13:57:36.357Z,2.17
2018-04-27T14:00:02.218Z,2.50
2018-04-27T14:02:28.090Z,2.25
2018-04-27T14:04:54.011Z,2.40
2018-04-27T14:07:19.982Z,2.42
2018-04-27T14:09:45.871Z,2.17
2018-04-27T14:12:11.768Z,2.30
2018-04-27T14:14:37.621Z,2.45
2018-04-27T14:17:03.507Z,2.30
2018-04-27T14:19:29.370Z,2.50
2018-04-27T14:21:55.230Z,2.50
2018-04-27T14:24:21.184Z,2.62
2018-04-27T14:26:47.100Z,2.87
2018-04-27T14:29:12.951Z,2.45
2018-04-27T14:31:38.843Z,2.58
2018-04-27T14:34:04.690Z,2.55
2018-04-27T14:36:30.557Z,2.58
2018-04-27T14:38:56.420Z,2.15
2018-04-27T14:41:22.308Z,2.67
2018-04-27T14:43:48.182Z,2.97
2018-04-27T14:46:14.057Z,2.50
2018-04-27T14:48:39.921Z,2.60
2018-04-27T14:51:05.848Z,2.62
2018-04-27T14:53:31.729Z,2.55
2018-04-27T14:55:57.636Z,2.50
2018-04-27T14:58:23.607Z,3.30
2018-04-27T15:00:49.467Z,3.10
2018-04-27T15:03:15.375Z,2.50
2018-04-27T15:05:41.236Z,2.35
2018-04-27T15:08:07.071Z,2.83
2018-04-27T15:10:32.982Z,2.37
2018-04-27T15:12:58.867Z,2.72
2018-04-27T15:15:24.703Z,2.67
2018-04-27T15:17:51.075Z,3.40
2018-04-27T15:20:16.929Z,2.75
2018-04-27T15:22:42.806Z,3.12
2018-04-27T15:25:08.693Z,2.90
2018-04-27T15:27:34.562Z,2.97
2018-04-27T15:30:00.432Z,3.35
2018-04-27T15:32:26.316Z,2.80
2018-04-27T15:34:52.161Z,2.60
2018-04-27T15:37:18.096Z,2.95
2018-04-27T15:39:44.002Z,2.95
2018-04-27T15:42:09.878Z,2.60
2018-04-27T15:44:35.803Z,2.78
2018-04-27T15:47:01.646Z,2.72
2018-04-27T15:49:27.635Z,2.70
2018-04-27T15:51:53.601Z,3.25
2018-04-27T15:54:19.500Z,2.95
2018-04-27T15:56:45.381Z,3.33
2018-04-27T15:59:11.207Z,2.97
2018-04-27T16:01:37.131Z,2.95
2018-04-27T16:04:02.989Z,3.80
2018-04-27T16:06:28.885Z,3.22
2018-04-27T16:08:54.833Z,3.40
2018-04-27T16:11:20.742Z,3.87
2018-04-27T16:13:50.570Z,3.53
2018-04-27T16:16:16.462Z,3.72
2018-04-27T16:18:42.381Z,3.42
2018-04-27T16:21:08.288Z,3.55
2018-04-27T16:23:34.186Z,3.75
2018-04-27T16:26:00.040Z,3.87
2018-04-27T16:28:25.909Z,3.67
2018-04-27T16:30:51.763Z,3.53
2018-04-27T16:33:17.626Z,4.20
2018-04-27T16:35:43.640Z,3.35
2018-04-27T16:38:09.457Z,3.60
2018-04-27T16:40:35.391Z,3.83
2018-04-27T16:43:01.291Z,3.80
2018-04-27T16:45:27.164Z,3.08
2018-04-27T16:47:53.077Z,3.37
2018-04-27T16:50:18.955Z,3.40
2018-04-27T16:52:44.856Z,2.78
2018-04-27T16:55:10.688Z,3.33
2018-04-27T16:57:36.525Z,2.62
2018-04-27T17:00:02.426Z,3.10
2018-04-27T17:02:28.372Z,3.33
2018-04-27T17:04:54.347Z,3.20
2018-04-27T17:07:20.216Z,3.00
2018-04-27T17:09:46.072Z,3.67
2018-04-27T17:12:11.934Z,3.65
2018-04-27T17:14:37.804Z,3.10
2018-04-27T17:17:03.769Z,3.30
2018-04-27T17:19:29.591Z,3.28
2018-04-27T17:21:55.450Z,2.78
2018-04-27T17:24:21.313Z,2.55
2018-04-27T17:26:47.237Z,2.35
2018-04-27T17:29:13.079Z,2.35
2018-04-27T17:31:38.966Z,2.60
2018-04-27T17:34:04.836Z,2.42
2018-04-27T17:36:30.730Z,3.25
2018-04-27T17:38:56.613Z,3.00
2018-04-27T17:41:22.479Z,2.97
2018-04-27T17:43:48.341Z,2.35
2018-04-27T17:46:14.236Z,2.40
2018-04-27T17:48:40.221Z,2.10
2018-04-27T17:51:06.047Z,2.58
2018-04-27T17:53:32.017Z,2.62
2018-04-27T17:55:57.840Z,2.62
2018-04-27T17:58:23.747Z,2.45
2018-04-27T18:00:49.601Z,2.40
2018-04-27T18:03:15.482Z,2.40
2018-04-27T18:05:41.339Z,2.28
2018-04-27T18:08:07.237Z,2.53
2018-04-27T18:10:33.081Z,2.25
2018-04-27T18:12:58.966Z,2.42
2018-04-27T18:15:24.840Z,2.20
2018-04-27T18:17:50.723Z,2.40
2018-04-27T18:20:16.613Z,2.33
2018-04-27T18:22:42.484Z,2.30
2018-04-27T18:25:08.438Z,2.30
2018-04-27T18:27:34.269Z,2.43
2018-04-27T18:30:00.165Z,2.33
2018-04-27T18:32:26.073Z,2.20
2018-04-27T18:34:51.917Z,2.60
2018-04-27T18:37:17.801Z,2.40
2018-04-27T18:39:43.699Z,2.50
2018-04-27T18:42:09.576Z,2.63
2018-04-27T18:44:35.479Z,2.77
2018-04-27T18:47:01.362Z,2.83
2018-04-27T18:49:27.231Z,3.33
2018-04-27T18:51:53.123Z,2.60
2018-04-27T18:54:19.025Z,2.63
2018-04-27T18:56:44.895Z,2.00
2018-04-27T18:59:10.779Z,2.60
2018-04-27T19:01:36.653Z,2.40
2018-04-27T19:04:02.559Z,3.07
2018-04-27T19:06:28.401Z,2.53
2018-04-27T19:08:54.328Z,3.00
2018-04-27T19:11:20.195Z,2.40
2018-04-27T19:13:46.082Z,2.23
2018-04-27T19:16:12.001Z,2.77
2018-04-27T19:18:37.846Z,3.07
2018-04-27T19:21:03.751Z,3.23
2018-04-27T19:23:29.661Z,2.73
2018-04-27T19:25:56.316Z,2.80
2018-04-27T19:28:22.195Z,2.77
2018-04-27T19:30:48.079Z,3.03
2018-04-27T19:33:13.974Z,2.57
2018-04-27T19:35:39.846Z,2.83
2018-04-27T19:38:05.703Z,3.05
2018-04-27T19:40:31.570Z,5.33
2018-04-27T19:42:57.509Z,4.10
2018-04-27T19:45:23.362Z,4.47
2018-04-27T19:47:49.250Z,4.20
2018-04-27T19:50:15.151Z,3.40
2018-04-27T19:52:40.989Z,3.30
2018-04-27T19:55:07.113Z,3.03
2018-04-27T19:57:33.032Z,3.13
2018-04-27T19:59:58.923Z,2.80
2018-04-27T20:02:24.792Z,2.77
2018-04-27T20:04:50.682Z,2.93
2018-04-27T20:07:16.531Z,2.70
2018-04-27T20:09:42.385Z,2.60
2018-04-27T20:12:08.271Z,3.30
2018-04-27T20:14:34.129Z,2.43
2018-04-27T20:17:02.977Z,3.00
2018-04-27T20:19:28.944Z,3.00
2018-04-27T20:21:54.871Z,3.30
2018-04-27T20:24:20.798Z,3.57
2018-04-27T20:26:46.617Z,3.17
2018-04-27T20:29:12.491Z,2.97
2018-04-27T20:31:38.419Z,3.27
2018-04-27T20:34:04.293Z,2.80
2018-04-27T20:36:30.123Z,3.03
2018-04-27T20:38:56.037Z,3.00
2018-04-27T20:41:22.851Z,3.10
2018-04-27T20:43:48.800Z,3.73
2018-04-27T20:46:14.632Z,3.37
2018-04-27T20:48:40.554Z,3.13
2018-04-27T20:51:22.289Z,3.50
2018-04-27T20:53:50.082Z,3.47
2018-04-27T20:56:16.024Z,2.90
2018-04-27T20:58:41.910Z,3.23
2018-04-27T21:01:07.815Z,3.60
2018-04-27T21:03:33.864Z,3.83
2018-04-27T21:05:59.828Z,3.60
2018-04-27T21:08:25.720Z,3.80
2018-04-27T21:10:51.568Z,4.07
2018-04-27T21:13:17.476Z,3.33
2018-04-27T21:15:43.354Z,4.00
2018-04-27T21:18:09.253Z,3.90
2018-04-27T21:20:35.103Z,3.87
2018-04-27T21:23:00.962Z,3.80
2018-04-27T21:25:33.626Z,4.47
2018-04-27T21:27:59.569Z,4.10
2018-04-27T21:30:25.425Z,3.93
2018-04-27T21:32:51.318Z,3.57
2018-04-27T21:35:17.201Z,3.57
2018-04-27T21:37:43.057Z,4.17
2018-04-27T21:40:08.969Z,4.20
2018-04-27T21:42:34.802Z,6.63
2018-04-27T21:45:00.694Z,5.50
2018-04-27T21:47:29.321Z,4.97
2018-04-27T21:49:55.167Z,4.27
2018-04-27T21:52:27.045Z,4.57
2018-04-27T21:54:52.967Z,4.63
2018-04-27T21:57:18.929Z,4.23
2018-04-27T21:59:45.631Z,4.27
2018-04-27T22:02:12.318Z,4.67
2018-04-27T22:04:39.127Z,4.57
2018-04-27T22:07:04.982Z,4.70
2018-04-27T22:09:30.832Z,4.50
2018-04-27T22:11:56.705Z,5.33
2018-04-27T22:14:22.558Z,5.03
2018-04-27T22:16:51.320Z,4.87
2018-04-27T22:19:17.218Z,5.10
2018-04-27T22:21:43.084Z,5.00
2018-04-27T22:24:09.006Z,5.07
2018-04-27T22:26:34.896Z,5.23
2018-04-27T22:29:00.819Z,5.03
2018-04-27T22:31:27.510Z,4.63
2018-04-27T22:33:53.506Z,5.00
2018-04-27T22:36:21.287Z,4.70
2018-04-27T22:38:55.224Z,5.27
2018-04-27T22:41:21.071Z,5.60
2018-04-27T22:43:46.948Z,5.07
2018-04-27T22:46:12.804Z,5.80
2018-04-27T22:48:40.559Z,5.00
2018-04-27T22:51:23.159Z,5.37
2018-04-27T22:53:58.674Z,5.10
2018-04-27T22:56:44.300Z,6.00
2018-04-27T22:59:10.157Z,5.17
2018-04-27T23:01:43.623Z,6.07
2018-04-27T23:04:09.571Z,5.70
2018-04-27T23:06:35.434Z,5.40
2018-04-27T23:09:01.318Z,5.20
2018-04-27T23:11:27.209Z,5.63
2018-04-27T23:13:54.061Z,5.30
2018-04-27T23:16:19.969Z,5.60
2018-04-27T23:18:45.855Z,5.73
2018-04-27T23:21:17.964Z,5.37
2018-04-27T23:23:43.791Z,5.50
2018-04-27T23:26:09.638Z,5.80
2018-04-27T23:28:35.517Z,5.40
2018-04-27T23:31:01.377Z,6.07
2018-04-27T23:33:27.241Z,6.37
2018-04-27T23:35:54.029Z,5.93
2018-04-27T23:38:19.919Z,6.07
2018-04-27T23:40:46.775Z,5.50
2018-04-27T23:43:12.649Z,5.63
2018-04-27T23:45:38.515Z,6.00
2018-04-27T23:48:04.680Z,5.93
2018-04-27T23:50:30.521Z,5.77
2018-04-27T23:52:56.391Z,4.93
2018-04-27T23:55:22.261Z,5.37
2018-04-27T23:57:48.136Z,5.07
